Terminal Aerodrome Forecast
Issued by NWS

Current Version | Previous Version | Text Only | Print | Product List | Glossary On
Versions: 1 2 3 4 5 6 7 8 9 10 11 12 13
000
FTUS44 KTSA 260520
TAFXNA
TAF
KXNA 260520Z 2606/2706 15004KT P6SM BKN250
     FM261600 18006KT P6SM SCT040 BKN150
     FM270100 VRB03KT P6SM BKN150=

USA.gov is the U.S. government's official web portal to all federal, state and local government web resources and services.